sensor_id;sensor_type;location;lat;lon;timestamp;P1;durP1;ratioP1;P2;durP2;ratioP2
10142;SDS011;5112;54.088;13.446;2023-04-01T00:05:12;7.05;;;4.88;;
10142;SDS011;5112;54.088;13.446;2023-04-01T00:15:17;5.30;;;4.28;;
10142;SDS011;5112;54.088;13.446;2023-04-01T00:25:19;5.27;;;4.60;;
10142;SDS011;5112;54.088;13.446;2023-04-01T00:35:22;6.00;;;4.50;;
10142;SDS011;5112;54.088;13.446;2023-04-01T00:45:25;6.57;;;5.03;;
10142;SDS011;5112;54.088;13.446;2023-04-01T00:55:35;6.00;;;4.67;;
10142;SDS011;5112;54.088;13.446;2023-04-01T01:05:47;6.20;;;4.88;;
10142;SDS011;5112;54.088;13.446;2023-04-01T01:16:24;9.90;;;6.40;;
10142;SDS011;5112;54.088;13.446;2023-04-01T01:26:37;8.67;;;6.23;;
10142;SDS011;5112;54.088;13.446;2023-04-01T01:36:50;7.33;;;5.40;;
10142;SDS011;5112;54.088;13.446;2023-04-01T01:46:56;9.47;;;6.80;;
10142;SDS011;5112;54.088;13.446;2023-04-01T01:57:01;9.70;;;7.32;;
10142;SDS011;5112;54.088;13.446;2023-04-01T02:07:08;9.88;;;7.40;;
10142;SDS011;5112;54.088;13.446;2023-04-01T02:17:14;10.88;;;7.75;;
10142;SDS011;5112;54.088;13.446;2023-04-01T02:27:18;7.57;;;6.80;;
10142;SDS011;5112;54.088;13.446;2023-04-01T02:37:22;9.63;;;7.53;;
10142;SDS011;5112;54.088;13.446;2023-04-01T02:47:24;9.75;;;7.22;;
10142;SDS011;5112;54.088;13.446;2023-04-01T02:57:27;7.77;;;6.13;;
10142;SDS011;5112;54.088;13.446;2023-04-01T03:07:29;13.70;;;8.43;;
10142;SDS011;5112;54.088;13.446;2023-04-01T03:17:32;8.50;;;6.13;;
10142;SDS011;5112;54.088;13.446;2023-04-01T03:27:33;10.03;;;6.60;;
10142;SDS011;5112;54.088;13.446;2023-04-01T03:37:37;10.90;;;8.10;;
10142;SDS011;5112;54.088;13.446;2023-04-01T03:47:39;12.60;;;8.73;;
10142;SDS011;5112;54.088;13.446;2023-04-01T03:57:42;11.40;;;7.77;;
10142;SDS011;5112;54.088;13.446;2023-04-01T04:07:44;12.50;;;6.70;;
10142;SDS011;5112;54.088;13.446;2023-04-01T04:17:47;9.87;;;7.60;;
10142;SDS011;5112;54.088;13.446;2023-04-01T04:27:48;10.73;;;6.30;;
10142;SDS011;5112;54.088;13.446;2023-04-01T04:37:51;11.88;;;7.65;;
10142;SDS011;5112;54.088;13.446;2023-04-01T04:47:53;11.63;;;5.33;;
10142;SDS011;5112;54.088;13.446;2023-04-01T04:57:56;8.87;;;5.23;;
10142;SDS011;5112;54.088;13.446;2023-04-01T05:07:58;7.53;;;5.30;;
10142;SDS011;5112;54.088;13.446;2023-04-01T05:18:01;8.23;;;5.53;;
10142;SDS011;5112;54.088;13.446;2023-04-01T05:28:03;9.03;;;4.83;;
10142;SDS011;5112;54.088;13.446;2023-04-01T05:38:06;5.60;;;4.13;;
10142;SDS011;5112;54.088;13.446;2023-04-01T05:48:08;5.23;;;3.37;;
10142;SDS011;5112;54.088;13.446;2023-04-01T05:58:11;5.33;;;4.60;;
10142;SDS011;5112;54.088;13.446;2023-04-01T06:08:13;8.03;;;4.33;;
10142;SDS011;5112;54.088;13.446;2023-04-01T06:18:34;6.07;;;4.30;;
10142;SDS011;5112;54.088;13.446;2023-04-01T06:28:50;7.03;;;4.23;;
10142;SDS011;5112;54.088;13.446;2023-04-01T06:50:05;8.77;;;5.63;;
10142;SDS011;5112;54.088;13.446;2023-04-01T07:00:18;9.10;;;6.17;;
10142;SDS011;5112;54.088;13.446;2023-04-01T07:10:40;11.47;;;7.10;;
10142;SDS011;5112;54.088;13.446;2023-04-01T07:20:45;9.10;;;5.67;;
10142;SDS011;5112;54.088;13.446;2023-04-01T07:30:51;10.73;;;5.97;;
10142;SDS011;5112;54.088;13.446;2023-04-01T07:41:05;7.30;;;5.00;;
10142;SDS011;5112;54.088;13.446;2023-04-01T07:51:15;9.10;;;5.40;;
10142;SDS011;5112;54.088;13.446;2023-04-01T08:01:23;6.63;;;5.00;;
10142;SDS011;5112;54.088;13.446;2023-04-01T08:11:36;6.63;;;4.93;;
10142;SDS011;5112;54.088;13.446;2023-04-01T08:21:47;11.57;;;6.07;;
10142;SDS011;5112;54.088;13.446;2023-04-01T08:31:53;7.67;;;5.57;;
10142;SDS011;5112;54.088;13.446;2023-04-01T08:42:10;8.03;;;5.20;;
10142;SDS011;5112;54.088;13.446;2023-04-01T08:52:38;8.77;;;5.37;;
10142;SDS011;5112;54.088;13.446;2023-04-01T09:02:54;7.23;;;4.50;;
10142;SDS011;5112;54.088;13.446;2023-04-01T09:13:16;9.27;;;4.57;;
10142;SDS011;5112;54.088;13.446;2023-04-01T09:34:26;11.23;;;4.93;;
10142;SDS011;5112;54.088;13.446;2023-04-01T09:44:36;6.90;;;5.33;;
10142;SDS011;5112;54.088;13.446;2023-04-01T09:54:53;7.83;;;4.97;;
10142;SDS011;5112;54.088;13.446;2023-04-01T10:05:18;7.43;;;4.83;;
10142;SDS011;5112;54.088;13.446;2023-04-01T10:15:38;14.83;;;9.80;;
10142;SDS011;5112;54.088;13.446;2023-04-01T10:26:20;6.53;;;4.90;;
10142;SDS011;5112;54.088;13.446;2023-04-01T10:36:51;7.73;;;4.40;;
10142;SDS011;5112;54.088;13.446;2023-04-01T10:57:28;5.83;;;4.03;;
10142;SDS011;5112;54.088;13.446;2023-04-01T11:07:48;7.47;;;3.93;;
10142;SDS011;5112;54.088;13.446;2023-04-01T11:18:24;9.83;;;5.00;;
10142;SDS011;5112;54.088;13.446;2023-04-01T11:28:55;8.73;;;4.03;;
10142;SDS011;5112;54.088;13.446;2023-04-01T11:39:22;6.87;;;4.37;;
10142;SDS011;5112;54.088;13.446;2023-04-01T11:49:37;6.93;;;4.33;;
10142;SDS011;5112;54.088;13.446;2023-04-01T12:00:03;8.40;;;4.80;;
10142;SDS011;5112;54.088;13.446;2023-04-01T12:10:19;7.53;;;4.33;;
10142;SDS011;5112;54.088;13.446;2023-04-01T12:20:26;9.73;;;4.80;;
10142;SDS011;5112;54.088;13.446;2023-04-01T12:30:36;7.03;;;4.27;;
10142;SDS011;5112;54.088;13.446;2023-04-01T13:01:54;6.03;;;3.30;;
10142;SDS011;5112;54.088;13.446;2023-04-01T13:12:10;5.83;;;3.23;;
10142;SDS011;5112;54.088;13.446;2023-04-01T13:22:34;5.17;;;3.83;;
10142;SDS011;5112;54.088;13.446;2023-04-01T13:32:47;4.50;;;3.03;;
10142;SDS011;5112;54.088;13.446;2023-04-01T13:42:59;4.90;;;4.20;;
10142;SDS011;5112;54.088;13.446;2023-04-01T13:53:16;6.47;;;4.03;;
10142;SDS011;5112;54.088;13.446;2023-04-01T14:03:49;4.90;;;4.40;;
10142;SDS011;5112;54.088;13.446;2023-04-01T14:13:59;5.77;;;3.53;;
10142;SDS011;5112;54.088;13.446;2023-04-01T14:24:13;3.20;;;2.90;;
10142;SDS011;5112;54.088;13.446;2023-04-01T14:34:36;8.43;;;3.77;;
10142;SDS011;5112;54.088;13.446;2023-04-01T14:45:04;7.83;;;3.30;;
10142;SDS011;5112;54.088;13.446;2023-04-01T14:55:28;5.50;;;3.60;;
10142;SDS011;5112;54.088;13.446;2023-04-01T15:05:38;6.33;;;3.17;;
10142;SDS011;5112;54.088;13.446;2023-04-01T15:15:48;3.37;;;2.70;;
10142;SDS011;5112;54.088;13.446;2023-04-01T15:26:11;3.23;;;2.87;;
10142;SDS011;5112;54.088;13.446;2023-04-01T15:36:26;4.40;;;2.57;;
10142;SDS011;5112;54.088;13.446;2023-04-01T15:46:41;5.83;;;2.73;;
10142;SDS011;5112;54.088;13.446;2023-04-01T15:56:49;4.50;;;2.87;;
10142;SDS011;5112;54.088;13.446;2023-04-01T16:07:04;3.17;;;2.87;;
10142;SDS011;5112;54.088;13.446;2023-04-01T16:17:19;5.30;;;2.73;;
10142;SDS011;5112;54.088;13.446;2023-04-01T16:27:35;2.57;;;2.37;;
10142;SDS011;5112;54.088;13.446;2023-04-01T16:37:43;3.67;;;2.20;;
10142;SDS011;5112;54.088;13.446;2023-04-01T16:47:50;4.00;;;2.90;;
10142;SDS011;5112;54.088;13.446;2023-04-01T16:57:56;4.43;;;2.40;;
10142;SDS011;5112;54.088;13.446;2023-04-01T17:08:05;6.07;;;2.13;;
10142;SDS011;5112;54.088;13.446;2023-04-01T17:18:11;4.30;;;2.50;;
10142;SDS011;5112;54.088;13.446;2023-04-01T17:28:29;3.40;;;2.70;;
10142;SDS011;5112;54.088;13.446;2023-04-01T17:38:54;3.27;;;1.70;;
10142;SDS011;5112;54.088;13.446;2023-04-01T17:49:07;4.50;;;2.13;;
10142;SDS011;5112;54.088;13.446;2023-04-01T17:59:21;4.47;;;2.20;;
10142;SDS011;5112;54.088;13.446;2023-04-01T18:09:32;4.05;;;1.70;;
10142;SDS011;5112;54.088;13.446;2023-04-01T18:19:42;4.05;;;2.10;;
10142;SDS011;5112;54.088;13.446;2023-04-01T18:29:57;6.07;;;2.20;;
10142;SDS011;5112;54.088;13.446;2023-04-01T18:40:10;3.10;;;2.33;;
10142;SDS011;5112;54.088;13.446;2023-04-01T18:50:21;3.85;;;2.35;;
10142;SDS011;5112;54.088;13.446;2023-04-01T19:00:27;5.20;;;2.40;;
10142;SDS011;5112;54.088;13.446;2023-04-01T19:10:39;3.72;;;2.72;;
10142;SDS011;5112;54.088;13.446;2023-04-01T19:20:47;4.90;;;2.20;;
10142;SDS011;5112;54.088;13.446;2023-04-01T19:30:59;4.27;;;1.90;;
10142;SDS011;5112;54.088;13.446;2023-04-01T19:41:15;4.20;;;2.50;;
10142;SDS011;5112;54.088;13.446;2023-04-01T19:51:41;3.97;;;2.10;;
10142;SDS011;5112;54.088;13.446;2023-04-01T20:01:51;4.83;;;1.67;;
10142;SDS011;5112;54.088;13.446;2023-04-01T20:12:02;5.80;;;2.30;;
10142;SDS011;5112;54.088;13.446;2023-04-01T20:22:16;2.80;;;1.57;;
10142;SDS011;5112;54.088;13.446;2023-04-01T20:32:31;4.97;;;2.23;;
10142;SDS011;5112;54.088;13.446;2023-04-01T20:42:48;3.20;;;1.60;;
10142;SDS011;5112;54.088;13.446;2023-04-01T20:53:12;3.20;;;2.07;;
10142;SDS011;5112;54.088;13.446;2023-04-01T21:03:18;4.13;;;1.93;;
10142;SDS011;5112;54.088;13.446;2023-04-01T21:13:39;4.37;;;1.87;;
10142;SDS011;5112;54.088;13.446;2023-04-01T21:23:59;4.60;;;2.10;;
10142;SDS011;5112;54.088;13.446;2023-04-01T21:34:42;4.57;;;2.20;;
10142;SDS011;5112;54.088;13.446;2023-04-01T21:44:53;5.60;;;1.83;;
10142;SDS011;5112;54.088;13.446;2023-04-01T21:55:23;3.77;;;1.87;;
10142;SDS011;5112;54.088;13.446;2023-04-01T22:05:45;4.55;;;1.90;;
10142;SDS011;5112;54.088;13.446;2023-04-01T22:15:57;4.83;;;2.07;;
10142;SDS011;5112;54.088;13.446;2023-04-01T22:26:08;9.67;;;1.40;;
10142;SDS011;5112;54.088;13.446;2023-04-01T22:36:19;2.93;;;1.37;;
10142;SDS011;5112;54.088;13.446;2023-04-01T22:46:36;4.47;;;1.17;;
10142;SDS011;5112;54.088;13.446;2023-04-01T22:56:51;2.23;;;1.13;;
10142;SDS011;5112;54.088;13.446;2023-04-01T23:06:57;3.53;;;1.70;;
10142;SDS011;5112;54.088;13.446;2023-04-01T23:17:04;2.97;;;1.30;;
10142;SDS011;5112;54.088;13.446;2023-04-01T23:27:19;4.57;;;1.10;;
10142;SDS011;5112;54.088;13.446;2023-04-01T23:37:26;1.97;;;0.90;;
10142;SDS011;5112;54.088;13.446;2023-04-01T23:47:29;3.05;;;1.60;;
10142;SDS011;5112;54.088;13.446;2023-04-01T23:57:35;4.03;;;1.20;;
